Time;durP1;ratioP1;P1;durP2;ratioP2;P2;SDS_P1;SDS_P2;PMS_P1;PMS_P2;Temp;Humidity;BMP_temperature;BMP_pressure;BME280_temperature;BME280_humidity;BME280_pressure;Samples;Min_cycle;Max_cycle;Signal;HPM_P1;HPM_P2
2023/07/20 00:01:15;;;;;;;9.95;6.05;;;;;;;15.71;100.00;101160.50;5113917;28;20031;-75
2023/07/20 00:07:03;;;;;;;12.82;7.03;;;;;;;15.55;100.00;101153.94;5112886;28;20055;-75
2023/07/20 00:12:50;;;;;;;12.02;6.57;;;;;;;15.42;100.00;101149.66;5113524;28;20083;-75
2023/07/20 00:15:16;;;;;;;11.53;6.77;;;;;;;15.43;100.00;101153.16;5113303;28;20110;-75
2023/07/20 00:21:03;;;;;;;16.70;7.38;;;;;;;15.36;100.00;101163.28;5113276;28;20039;-74
2023/07/20 00:26:50;;;;;;;13.70;7.05;;;;;;;15.37;100.00;101164.91;5113194;28;20059;-75
2023/07/20 00:32:37;;;;;;;15.15;7.05;;;;;;;15.28;100.00;101161.75;5113437;28;20105;-75
2023/07/20 00:38:25;;;;;;;12.27;7.05;;;;;;;15.22;100.00;101162.69;5113490;28;20051;-75
2023/07/20 00:40:50;;;;;;;16.45;7.65;;;;;;;15.18;100.00;101161.53;5094629;28;20036;-76
2023/07/20 00:43:16;;;;;;;14.77;8.18;;;;;;;15.19;100.00;101166.69;5112132;28;20036;-76
2023/07/20 00:45:42;;;;;;;15.93;7.85;;;;;;;15.10;100.00;101173.50;5113039;28;20024;-75
2023/07/20 00:51:29;;;;;;;17.23;8.20;;;;;;;14.92;100.00;101151.25;5113148;28;20043;-75
2023/07/20 00:53:55;;;;;;;15.60;8.18;;;;;;;14.99;100.00;101168.91;5094358;28;20028;-76
2023/07/20 00:59:42;;;;;;;19.20;8.60;;;;;;;15.15;100.00;101170.09;5112915;28;20038;-76
2023/07/20 01:02:07;;;;;;;19.85;8.90;;;;;;;15.17;100.00;101168.78;5112020;28;20055;-75
2023/07/20 01:04:35;;;;;;;15.73;8.13;;;;;;;15.27;100.00;101176.28;5112781;28;20016;-73
2023/07/20 01:07:25;;;;;;;15.45;8.38;;;;;;;15.30;100.00;101175.78;5093746;28;20126;-76
2023/07/20 01:10:17;;;;;;;15.75;8.40;;;;;;;15.32;100.00;101172.88;5094358;28;20031;-75
2023/07/20 01:12:47;;;;;;;15.07;9.32;;;;;;;15.31;100.00;101177.44;5111718;28;20040;-76
2023/07/20 01:18:34;;;;;;;13.15;7.75;;;;;;;15.29;100.00;101184.13;5112691;28;20057;-75
2023/07/20 01:21:06;;;;;;;14.75;9.32;;;;;;;15.29;100.00;101174.16;5112510;28;20468;-75
2023/07/20 01:23:42;;;;;;;13.65;8.10;;;;;;;15.32;100.00;101180.94;5112424;28;20073;-75
2023/07/20 01:26:31;;;;;;;12.93;7.95;;;;;;;15.40;100.00;101184.13;5111700;28;20043;-74
2023/07/20 01:32:20;;;;;;;20.08;8.57;;;;;;;15.37;100.00;101175.69;5112348;28;20145;-74
2023/07/20 01:34:47;;;;;;;16.17;7.95;;;;;;;15.42;100.00;101183.88;5094075;28;20494;-74
2023/07/20 01:37:14;;;;;;;19.35;8.45;;;;;;;15.37;100.00;101186.47;5111406;28;20048;-75
2023/07/20 01:39:40;;;;;;;15.52;7.95;;;;;;;15.38;100.00;101190.81;5116063;28;20031;-75
2023/07/20 01:42:06;;;;;;;16.85;9.00;;;;;;;15.37;100.00;101181.06;5115816;28;20039;-75
2023/07/20 01:44:31;;;;;;;20.75;9.13;;;;;;;15.40;100.00;101180.59;5097018;28;20137;-75
2023/07/20 01:46:57;;;;;;;15.88;8.43;;;;;;;15.42;100.00;101184.69;5097559;28;20034;-75
2023/07/20 01:49:22;;;;;;;18.13;8.23;;;;;;;15.44;100.00;101177.19;5114895;28;20478;-75
2023/07/20 01:51:47;;;;;;;16.13;9.43;;;;;;;15.43;100.00;101185.50;5097351;28;20281;-75
2023/07/20 01:54:12;;;;;;;15.03;9.27;;;;;;;15.41;100.00;101191.13;5115680;28;20281;-74
2023/07/20 01:56:38;;;;;;;17.67;9.93;;;;;;;15.40;100.00;101199.47;5096783;28;20289;-74
2023/07/20 01:59:03;;;;;;;18.33;10.60;;;;;;;15.28;100.00;101187.88;5097318;28;20262;-75
2023/07/20 02:04:50;;;;;;;16.45;9.68;;;;;;;15.15;100.00;101200.53;5115540;28;20268;-74
2023/07/20 02:07:15;;;;;;;16.90;9.53;;;;;;;15.05;100.00;101192.25;5115433;28;20103;-74
2023/07/20 02:09:40;;;;;;;20.33;11.00;;;;;;;15.03;100.00;101194.31;5096501;28;20293;-74
2023/07/20 02:12:06;;;;;;;17.77;10.73;;;;;;;15.03;100.00;101193.50;5115338;28;20626;-74
2023/07/20 02:14:31;;;;;;;17.98;11.95;;;;;;;15.05;100.00;101200.31;5114792;28;20280;-75
2023/07/20 02:16:59;;;;;;;20.00;11.87;;;;;;;15.04;100.00;101195.16;5114995;28;20032;-74
2023/07/20 02:19:26;;;;;;;21.33;12.15;;;;;;;15.06;100.00;101201.16;5096907;28;20285;-75
2023/07/20 02:21:51;;;;;;;15.30;11.18;;;;;;;15.04;100.00;101205.94;5096396;28;20585;-75
2023/07/20 02:24:16;;;;;;;19.13;11.55;;;;;;;14.98;100.00;101204.97;5097044;28;20057;-74
2023/07/20 02:26:42;;;;;;;18.35;11.85;;;;;;;14.94;100.00;101203.81;5096711;28;20048;-74
2023/07/20 02:29:08;;;;;;;20.85;12.27;;;;;;;14.94;100.00;101201.13;5114469;28;20447;-74
2023/07/20 02:31:33;;;;;;;19.50;12.65;;;;;;;15.01;100.00;101201.00;5096647;28;20031;-75
2023/07/20 02:33:58;;;;;;;17.38;12.88;;;;;;;15.04;100.00;101212.16;5114269;28;20483;-75
2023/07/20 02:39:45;;;;;;;20.77;12.43;;;;;;;15.07;100.00;101208.16;5114824;28;20134;-75
2023/07/20 02:42:11;;;;;;;17.63;12.85;;;;;;;15.09;100.00;101216.84;5096410;28;20027;-76
2023/07/20 02:44:36;;;;;;;17.00;12.73;;;;;;;15.11;100.00;101214.72;5114784;28;20463;-75
2023/07/20 02:47:01;;;;;;;22.67;13.73;;;;;;;15.13;100.00;101221.50;5114124;28;20043;-76
2023/07/20 02:49:27;;;;;;;20.25;13.52;;;;;;;15.15;100.00;101226.66;5114601;28;20639;-75
2023/07/20 02:51:52;;;;;;;20.70;14.00;;;;;;;15.18;100.00;101227.00;5114748;28;20031;-75
2023/07/20 02:54:17;;;;;;;23.25;14.13;;;;;;;15.13;100.00;101224.19;5114058;28;20384;-76
2023/07/20 02:56:43;;;;;;;21.92;15.20;;;;;;;15.09;100.00;101212.25;5114788;28;20047;-75
2023/07/20 02:59:08;;;;;;;23.13;14.48;;;;;;;15.06;100.00;101228.91;5113845;28;20071;-76
2023/07/20 03:01:34;;;;;;;23.60;14.82;;;;;;;15.01;100.00;101230.63;5096376;28;20047;-76
2023/07/20 03:03:59;;;;;;;22.17;14.80;;;;;;;15.01;100.00;101230.63;5114554;28;20421;-75
2023/07/20 03:06:24;;;;;;;22.23;15.32;;;;;;;15.00;100.00;101237.88;5113732;28;20047;-75
2023/07/20 03:08:53;;;;;;;21.95;15.30;;;;;;;15.01;100.00;101231.44;5114570;28;20409;-75
2023/07/20 03:11:20;;;;;;;22.60;15.20;;;;;;;15.00;100.00;101245.97;5095986;28;20027;-76
2023/07/20 03:13:46;;;;;;;20.55;14.98;;;;;;;14.97;100.00;101246.44;5113958;28;20412;-76
2023/07/20 03:16:17;;;;;;;22.17;15.63;;;;;;;14.90;100.00;101248.44;5114346;28;20032;-73
2023/07/20 03:18:43;;;;;;;21.05;15.13;;;;;;;14.82;100.00;101251.47;5095510;28;20040;-76
2023/07/20 03:21:11;;;;;;;23.55;15.68;;;;;;;14.72;100.00;101252.00;5114383;28;20070;-75
2023/07/20 03:23:36;;;;;;;20.30;13.55;;;;;;;14.73;100.00;101253.66;5114297;28;20506;-75
2023/07/20 03:26:02;;;;;;;20.90;14.05;;;;;;;14.71;100.00;101252.25;5095364;28;20055;-75
2023/07/20 03:31:49;;;;;;;20.60;13.75;;;;;;;14.71;100.00;101258.44;5114355;28;20046;-75
2023/07/20 03:34:14;;;;;;;19.63;13.05;;;;;;;14.74;100.00;101260.69;5114264;28;20020;-75
2023/07/20 03:36:39;;;;;;;21.77;14.87;;;;;;;14.68;100.00;101258.09;5095217;28;20043;-74
2023/07/20 03:39:05;;;;;;;18.43;13.97;;;;;;;14.70;100.00;101264.06;5095664;28;20776;-75
2023/07/20 03:41:30;;;;;;;18.23;12.67;;;;;;;14.63;100.00;101260.66;5113961;28;20348;-75
2023/07/20 03:43:55;;;;;;;16.87;12.90;;;;;;;14.49;100.00;101260.88;5095212;28;20753;-75
2023/07/20 03:49:42;;;;;;;16.65;11.70;;;;;;;14.28;100.00;101258.66;5113288;28;20081;-75
2023/07/20 03:52:07;;;;;;;16.57;12.30;;;;;;;14.21;100.00;101257.94;5095548;28;20059;-75
2023/07/20 03:54:32;;;;;;;18.38;11.73;;;;;;;14.19;100.00;101270.78;5095398;28;20334;-75
2023/07/20 03:56:58;;;;;;;18.98;11.77;;;;;;;14.11;100.00;101268.38;5112835;28;20067;-75
2023/07/20 03:59:24;;;;;;;14.38;11.05;;;;;;;14.06;100.00;101270.94;5095385;28;20414;-74
2023/07/20 04:01:49;;;;;;;15.50;11.07;;;;;;;14.02;100.00;101269.75;5112962;28;20035;-74
2023/07/20 04:04:15;;;;;;;15.17;10.67;;;;;;;14.00;100.00;101272.69;5112854;28;20057;-74
2023/07/20 04:06:44;;;;;;;17.25;10.70;;;;;;;14.00;100.00;101272.69;5113627;28;20262;-75
2023/07/20 04:09:11;;;;;;;16.67;11.57;;;;;;;13.97;100.00;101280.38;5094595;28;20435;-73
2023/07/20 04:11:36;;;;;;;17.10;12.40;;;;;;;13.90;100.00;101283.16;5113321;28;20161;-74
2023/07/20 04:14:01;;;;;;;17.60;12.97;;;;;;;13.87;100.00;101281.72;5095109;28;20122;-75
2023/07/20 04:16:27;;;;;;;17.90;12.73;;;;;;;13.90;100.00;101278.59;5094557;28;20286;-75
2023/07/20 04:18:55;;;;;;;19.05;13.27;;;;;;;13.89;100.00;101279.66;5095063;28;20757;-74
2023/07/20 04:21:20;;;;;;;18.48;13.30;;;;;;;13.87;100.00;101273.63;5112798;28;20024;-74
2023/07/20 04:23:45;;;;;;;17.42;13.13;;;;;;;13.84;100.00;101279.47;5112773;28;20100;-75
2023/07/20 04:26:12;;;;;;;17.23;12.88;;;;;;;13.92;100.00;101286.44;5095047;28;20028;-75
2023/07/20 04:28:38;;;;;;;16.13;12.65;;;;;;;13.89;100.00;101284.19;5112274;28;20598;-75
2023/07/20 04:31:11;;;;;;;17.30;12.38;;;;;;;13.89;100.00;101286.88;5113078;28;20107;-75
2023/07/20 04:33:36;;;;;;;17.27;12.05;;;;;;;13.90;100.00;101283.16;5113147;28;20032;-75
2023/07/20 04:36:02;;;;;;;17.25;12.65;;;;;;;13.97;100.00;101283.06;5112399;28;20088;-74
2023/07/20 04:41:49;;;;;;;18.45;11.95;;;;;;;14.38;100.00;101282.31;5113651;28;20047;-75
2023/07/20 04:44:14;;;;;;;13.50;10.53;;;;;;;14.47;100.00;101279.13;5094458;28;20028;-75
2023/07/20 04:46:40;;;;;;;14.10;10.93;;;;;;;14.60;100.00;101288.03;5112466;28;20602;-75
2023/07/20 04:49:05;;;;;;;13.63;10.73;;;;;;;14.71;100.00;101288.06;5094259;28;20277;-76
2023/07/20 04:51:31;;;;;;;15.60;11.10;;;;;;;14.81;100.00;101284.81;5094392;28;20024;-75
2023/07/20 04:53:57;;;;;;;12.88;10.90;;;;;;;14.88;100.00;101283.66;5111751;28;20048;-75
2023/07/20 04:56:23;;;;;;;17.98;12.98;;;;;;;14.96;100.00;101278.97;5094466;28;20032;-75
2023/07/20 04:58:48;;;;;;;15.05;11.18;;;;;;;15.08;100.00;101286.03;5112687;28;20043;-75
2023/07/20 05:01:13;;;;;;;13.60;11.20;;;;;;;15.18;100.00;101280.06;5112205;28;20460;-75
2023/07/20 05:03:39;;;;;;;14.47;11.57;;;;;;;15.36;100.00;101279.16;5112834;28;20081;-75
2023/07/20 05:06:04;;;;;;;15.07;11.20;;;;;;;15.51;100.00;101284.88;5112346;28;20277;-76
2023/07/20 05:08:29;;;;;;;14.43;10.87;;;;;;;15.72;100.00;101278.91;5112510;28;20668;-75
2023/07/20 05:10:55;;;;;;;16.33;11.17;;;;;;;15.95;100.00;101277.22;5112725;28;20300;-76
2023/07/20 05:13:20;;;;;;;18.25;11.48;;;;;;;16.26;100.00;101273.22;5093567;28;20289;-75
2023/07/20 05:15:45;;;;;;;15.48;11.43;;;;;;;16.58;100.00;101270.84;5112815;28;20381;-75
2023/07/20 05:18:11;;;;;;;16.25;11.45;;;;;;;16.92;100.00;101271.72;5112530;28;20032;-75
2023/07/20 05:20:37;;;;;;;14.57;11.80;;;;;;;17.36;100.00;101275.41;5111893;28;20078;-75
2023/07/20 05:23:02;;;;;;;14.07;11.73;;;;;;;17.60;100.00;101274.09;5094459;28;20300;-75
2023/07/20 05:25:28;;;;;;;15.00;11.10;;;;;;;17.70;100.00;101278.06;5111385;28;20575;-76
2023/07/20 05:27:55;;;;;;;14.40;11.13;;;;;;;17.82;100.00;101276.84;5112337;28;20441;-76
2023/07/20 05:30:20;;;;;;;12.27;10.68;;;;;;;18.06;100.00;101290.13;5112248;28;20028;-74
2023/07/20 05:36:07;;;;;;;14.77;10.70;;;;;;;18.33;100.00;101292.88;5112330;28;20085;-75
2023/07/20 05:38:32;;;;;;;13.05;10.00;;;;;;;18.52;100.00;101300.41;5111338;28;20044;-75
2023/07/20 05:41:01;;;;;;;11.32;9.48;;;;;;;18.66;100.00;101302.72;5112371;28;20024;-75
2023/07/20 05:43:27;;;;;;;12.48;9.52;;;;;;;18.90;100.00;101303.22;5112210;28;20074;-76
2023/07/20 05:45:52;;;;;;;10.73;9.63;;;;;;;19.23;100.00;101307.53;5111500;28;20141;-74
2023/07/20 05:48:17;;;;;;;9.57;8.57;;;;;;;19.50;100.00;101303.66;5112119;28;20308;-75
2023/07/20 05:50:43;;;;;;;11.20;8.00;;;;;;;19.69;100.00;101306.78;5111548;28;20111;-76
2023/07/20 05:53:09;;;;;;;9.80;8.60;;;;;;;19.67;100.00;101297.28;5093545;28;20622;-75
2023/07/20 05:55:34;;;;;;;11.15;8.75;;;;;;;19.88;100.00;101312.56;5093801;28;20118;-75
2023/07/20 05:57:59;;;;;;;10.57;8.30;;;;;;;19.86;100.00;101314.72;5093219;28;20126;-75
2023/07/20 06:03:46;;;;;;;8.40;7.53;;;;;;;20.05;100.00;101318.63;5112151;28;20041;-75
2023/07/20 06:06:12;;;;;;;9.50;7.93;;;;;;;20.32;100.00;101310.31;5112078;28;20015;-73
2023/07/20 06:08:38;;;;;;;13.23;8.05;;;;;;;20.95;100.00;101315.59;5111862;28;20258;-74
2023/07/20 06:11:03;;;;;;;9.05;7.70;;;;;;;21.25;100.00;101320.25;5110871;28;20056;-74
2023/07/20 06:13:29;;;;;;;10.52;7.45;;;;;;;21.66;97.25;101320.97;5093619;28;20031;-75
2023/07/20 06:15:55;;;;;;;10.63;7.78;;;;;;;21.89;96.11;101333.97;5111683;28;20023;-75
2023/07/20 06:21:43;;;;;;;10.95;7.63;;;;;;;22.29;94.37;101334.97;5111995;28;20046;-74
2023/07/20 06:24:08;;;;;;;10.18;7.72;;;;;;;22.40;93.17;101335.72;5094092;28;20466;-74
2023/07/20 06:26:38;;;;;;;8.32;7.32;;;;;;;22.29;93.25;101340.41;5096847;28;20027;-73
2023/07/20 06:29:06;;;;;;;10.15;8.57;;;;;;;22.48;93.88;101341.38;5114384;28;20106;-74
2023/07/20 06:31:33;;;;;;;10.57;7.90;;;;;;;23.56;88.78;101341.41;5114919;28;20106;-73
2023/07/20 06:37:20;;;;;;;8.20;7.30;;;;;;;24.04;83.27;101343.06;5115214;28;20403;-74
2023/07/20 06:43:07;;;;;;;7.43;6.53;;;;;;;22.88;85.64;101325.88;5115054;28;20291;-76
2023/07/20 06:45:32;;;;;;;8.25;6.20;;;;;;;23.27;84.36;101336.75;5114900;28;20024;-75
2023/07/20 06:51:20;;;;;;;7.30;6.60;;;;;;;24.91;75.53;101325.47;5114668;28;20321;-74
2023/07/20 06:57:10;;;;;;;7.72;6.65;;;;;;;23.08;84.65;101320.25;5115027;28;20380;-73
2023/07/20 06:59:35;;;;;;;6.85;5.97;;;;;;;22.51;84.74;101321.72;5113878;28;20055;-74
2023/07/20 07:02:00;;;;;;;8.03;6.77;;;;;;;22.11;87.56;101333.66;5096436;28;20100;-75
2023/07/20 07:04:27;;;;;;;8.80;6.77;;;;;;;22.37;87.81;101333.53;5114599;28;20024;-74
2023/07/20 07:06:52;;;;;;;6.90;6.10;;;;;;;22.59;86.09;101335.88;5095692;28;20866;-74
2023/07/20 07:12:39;;;;;;;5.10;4.55;;;;;;;25.34;72.70;101337.06;5114593;28;20295;-74
2023/07/20 07:15:07;;;;;;;5.15;4.65;;;;;;;25.92;68.89;101345.56;5114343;28;20019;-74
2023/07/20 07:17:33;;;;;;;4.88;3.88;;;;;;;26.56;66.62;101345.59;5113611;28;20488;-74
2023/07/20 07:19:58;;;;;;;4.77;3.57;;;;;;;27.53;64.59;101346.81;5114179;28;20084;-73
2023/07/20 07:22:23;;;;;;;3.95;2.97;;;;;;;27.21;63.15;101358.09;5096027;28;20288;-74
2023/07/20 07:31:45;;;;;;;6.00;3.10;;;;;;;27.88;63.04;101349.72;5114139;28;20038;-75
2023/07/20 07:37:32;;;;;;;5.20;4.32;;;;;;;29.89;52.81;101351.78;5113845;28;20065;-74
2023/07/20 07:39:57;;;;;;;4.33;3.70;;;;;;;27.95;56.39;101356.38;5114023;28;20461;-74
2023/07/20 07:49:45;;;;;;;3.78;3.08;;;;;;;22.55;77.67;101350.06;5113899;28;20035;-76
2023/07/20 07:52:10;;;;;;;4.40;3.67;;;;;;;21.81;82.56;101350.06;5113202;28;20100;-75
2023/07/20 07:54:35;;;;;;;4.95;3.30;;;;;;;21.39;83.25;101353.94;5095442;28;20456;-75
2023/07/20 07:57:01;;;;;;;3.77;3.07;;;;;;;20.95;85.25;101350.94;5095467;28;20410;-75
2023/07/20 07:59:26;;;;;;;4.80;3.67;;;;;;;20.65;88.49;101357.97;5095058;28;20273;-75
2023/07/20 08:01:52;;;;;;;4.30;3.47;;;;;;;20.45;90.03;101354.38;5113662;28;20395;-74
2023/07/20 08:04:17;;;;;;;4.80;3.80;;;;;;;20.31;92.43;101356.75;5094345;28;20047;-75
2023/07/20 08:06:44;;;;;;;3.95;3.50;;;;;;;20.27;92.89;101367.34;5113629;28;20054;-74
2023/07/20 08:09:09;;;;;;;4.55;3.55;;;;;;;20.27;91.35;101369.25;5095005;28;20048;-74
2023/07/20 08:14:56;;;;;;;5.13;4.07;;;;;;;20.53;94.12;101368.28;5113486;28;20276;-74
2023/07/20 08:17:22;;;;;;;4.10;2.70;;;;;;;21.10;89.55;101367.25;5094488;28;20027;-71
2023/07/20 08:19:47;;;;;;;3.38;2.10;;;;;;;23.96;77.55;101372.91;5095153;28;20281;-75
2023/07/20 08:25:37;;;;;;;3.30;2.25;;;;;;;28.93;55.81;101385.41;5113127;28;20039;-72
2023/07/20 08:31:23;;;;;;;5.25;1.92;;;;;;;30.25;45.72;101382.78;5113129;28;20088;-72
2023/07/20 08:33:49;;;;;;;4.03;1.90;;;;;;;28.38;49.92;101394.25;5112991;28;20367;-71
2023/07/20 08:36:14;;;;;;;2.50;2.10;;;;;;;26.72;55.95;101379.00;5112226;28;20066;-72
2023/07/20 08:42:06;;;;;;;2.65;2.00;;;;;;;24.65;62.35;101366.88;5112977;28;20268;-72
2023/07/20 08:47:55;;;;;;;4.10;1.83;;;;;;;23.42;68.26;101368.56;5112525;28;20522;-72
2023/07/20 08:50:21;;;;;;;3.00;1.70;;;;;;;23.12;68.15;101369.59;5112906;28;20057;-72
2023/07/20 08:56:10;;;;;;;2.42;1.75;;;;;;;24.70;65.56;101360.53;5113264;28;20061;-73
2023/07/20 09:02:02;;;;;;;2.95;1.90;;;;;;;31.51;45.06;101378.81;5112925;28;20047;-75
2023/07/20 09:07:49;;;;;;;2.50;1.40;;;;;;;33.60;36.63;101378.88;5113053;28;20046;-74
2023/07/20 09:13:37;;;;;;;3.17;1.85;;;;;;;34.98;32.93;101378.50;5112682;28;20352;-73
2023/07/20 09:19:24;;;;;;;4.32;2.17;;;;;;;34.30;34.57;101375.41;5112760;28;20089;-72
2023/07/20 09:21:51;;;;;;;3.80;1.60;;;;;;;34.86;33.53;101375.88;5112599;28;20035;-72
2023/07/20 09:31:18;;;;;;;2.92;1.58;;;;;;;28.83;45.42;101358.97;5112438;28;20054;-73
2023/07/20 09:33:44;;;;;;;1.77;1.60;;;;;;;27.48;48.59;101357.94;5111652;28;20468;-73
2023/07/20 09:39:32;;;;;;;3.17;1.60;;;;;;;25.50;52.77;101341.16;5112236;28;20062;-73
2023/07/20 09:42:01;;;;;;;2.40;1.83;;;;;;;24.90;54.97;101351.19;5111595;28;20488;-72
2023/07/20 09:44:28;;;;;;;5.30;1.67;;;;;;;24.64;56.57;101346.13;5093818;28;20784;-72
2023/07/20 09:46:53;;;;;;;12.05;2.17;;;;;;;24.83;57.76;101342.53;5111242;28;20043;-72
2023/07/20 09:52:41;;;;;;;1.88;1.52;;;;;;;25.53;53.66;101342.47;5111992;28;20043;-71
2023/07/20 09:55:08;;;;;;;2.58;1.50;;;;;;;25.22;51.59;101342.22;5112074;28;20020;-72
2023/07/20 10:00:59;;;;;;;2.03;1.50;;;;;;;26.58;50.98;101340.63;5115994;28;20387;-71
2023/07/20 10:03:29;;;;;;;2.75;1.60;;;;;;;27.39;51.13;101351.56;5115502;28;20106;-72
2023/07/20 10:06:05;;;;;;;2.30;1.50;;;;;;;27.86;48.50;101344.56;5114664;28;20051;-72
2023/07/20 10:08:34;;;;;;;1.73;1.40;;;;;;;27.60;45.13;101338.91;5115545;28;20164;-72
2023/07/20 10:11:01;;;;;;;1.95;1.40;;;;;;;27.02;47.17;101336.31;5114491;28;20132;-72
2023/07/20 10:13:29;;;;;;;1.80;1.50;;;;;;;27.66;46.99;101334.13;5115416;28;20038;-72
2023/07/20 10:16:03;;;;;;;3.38;1.70;;;;;;;28.04;45.68;101334.41;5097285;28;20062;-71
2023/07/20 10:18:54;;;;;;;1.67;1.48;;;;;;;27.33;46.01;101328.94;5106828;28;20062;-71
2023/07/20 10:21:22;;;;;;;4.13;1.65;;;;;;;26.99;46.55;101328.72;5103941;28;20077;-71
2023/07/20 10:23:48;;;;;;;2.60;1.50;;;;;;;27.25;48.05;101324.19;5114372;28;20036;-72
2023/07/20 10:26:13;;;;;;;1.30;1.20;;;;;;;27.29;44.85;101332.63;5115226;28;20027;-72
2023/07/20 10:28:39;;;;;;;1.50;1.40;;;;;;;27.25;45.97;101321.47;5114136;28;20507;-72
2023/07/20 10:31:08;;;;;;;2.05;1.30;;;;;;;27.09;46.81;101329.25;5114986;28;20296;-72
2023/07/20 10:33:33;;;;;;;1.65;1.15;;;;;;;26.55;48.44;101322.84;5115072;28;20031;-72
2023/07/20 10:36:05;;;;;;;2.22;1.40;;;;;;;26.39;49.27;101312.56;5096219;28;20084;-72
2023/07/20 10:38:56;;;;;;;4.18;1.77;;;;;;;26.50;49.85;101317.47;5115033;28;20476;-71
2023/07/20 10:41:33;;;;;;;3.15;1.27;;;;;;;26.22;49.73;101307.66;5114265;28;20100;-72
2023/07/20 10:44:05;;;;;;;2.05;1.50;;;;;;;25.59;50.70;101314.69;5114987;28;20025;-72
2023/07/20 10:46:39;;;;;;;2.50;1.55;;;;;;;25.30;52.79;101308.66;5095982;28;20491;-72
2023/07/20 10:49:07;;;;;;;2.67;1.50;;;;;;;24.94;53.34;101294.75;5114793;28;20047;-72
2023/07/20 10:51:55;;;;;;;2.08;1.40;;;;;;;24.61;54.00;101313.06;5096439;28;20027;-72
2023/07/20 10:54:20;;;;;;;1.42;1.30;;;;;;;24.79;52.49;101309.50;5095881;28;20051;-71
2023/07/20 10:56:49;;;;;;;1.33;1.20;;;;;;;25.02;51.65;101305.03;5114709;28;20049;-72
2023/07/20 10:59:22;;;;;;;3.17;1.70;;;;;;;25.09;52.58;101304.66;5113824;28;20047;-71
2023/07/20 11:01:50;;;;;;;2.10;1.23;;;;;;;25.16;51.51;101305.09;5114847;28;20028;-72
2023/07/20 11:04:19;;;;;;;1.83;1.50;;;;;;;24.85;54.27;101300.06;5114541;28;20047;-72
2023/07/20 11:10:15;;;;;;;1.20;1.10;;;;;;;25.09;55.10;101300.00;5114720;28;20156;-72
2023/07/20 11:12:41;;;;;;;1.40;1.30;;;;;;;25.81;51.45;101292.09;5113661;28;20059;-73
2023/07/20 11:15:06;;;;;;;1.77;1.53;;;;;;;26.53;49.47;101294.91;5114436;28;20044;-72
2023/07/20 11:17:33;;;;;;;2.30;1.30;;;;;;;26.96;47.94;101302.69;5113493;28;20285;-72
2023/07/20 11:20:00;;;;;;;2.13;1.27;;;;;;;26.27;48.03;101295.78;5114401;28;20035;-72
2023/07/20 11:22:26;;;;;;;2.20;1.50;;;;;;;25.35;49.80;101286.66;5095923;28;20110;-71
2023/07/20 11:24:55;;;;;;;2.25;1.50;;;;;;;25.03;52.44;101298.47;5113578;28;20032;-72
2023/07/20 11:27:22;;;;;;;3.30;1.50;;;;;;;24.63;53.53;101287.06;5114193;28;20027;-72
2023/07/20 11:29:47;;;;;;;1.55;1.45;;;;;;;24.33;53.10;101282.03;5113492;28;20047;-73
2023/07/20 11:32:21;;;;;;;2.30;1.40;;;;;;;23.94;55.61;101284.97;5114105;28;20020;-73
2023/07/20 11:34:47;;;;;;;2.20;1.42;;;;;;;23.66;56.00;101287.50;5095534;28;20563;-73
2023/07/20 11:37:12;;;;;;;2.28;1.63;;;;;;;23.36;57.81;101290.53;5095538;28;20071;-72
2023/07/20 11:39:38;;;;;;;3.43;1.60;;;;;;;23.17;59.04;101288.53;5113976;28;20035;-71
2023/07/20 11:42:05;;;;;;;4.35;1.70;;;;;;;23.13;59.75;101292.09;5113107;28;20771;-72
2023/07/20 11:44:30;;;;;;;3.50;1.63;;;;;;;23.27;61.14;101273.16;5113939;28;20055;-72
2023/07/20 11:47:14;;;;;;;3.50;1.48;;;;;;;23.60;59.08;101277.75;5113354;28;20055;-72
2023/07/20 11:49:42;;;;;;;3.55;1.60;;;;;;;23.76;58.57;101278.38;5113991;28;20044;-72
2023/07/20 11:52:15;;;;;;;2.63;1.70;;;;;;;23.77;58.07;101272.63;5113836;28;20480;-72
2023/07/20 11:54:43;;;;;;;3.90;1.88;;;;;;;24.03;58.27;101281.31;5112988;28;20036;-72
2023/07/20 12:00:30;;;;;;;3.00;1.45;;;;;;;23.74;59.31;101273.22;5114351;28;20691;-72
2023/07/20 12:02:55;;;;;;;1.92;1.52;;;;;;;23.52;59.05;101277.53;5113707;28;20024;-72
2023/07/20 12:05:23;;;;;;;2.40;1.67;;;;;;;23.27;59.91;101267.69;5112935;28;20070;-72
2023/07/20 12:07:50;;;;;;;1.73;1.60;;;;;;;22.97;61.38;101272.34;5113596;28;20643;-73
2023/07/20 12:10:16;;;;;;;2.45;1.60;;;;;;;22.86;60.70;101268.91;5113572;28;20110;-73
2023/07/20 12:12:43;;;;;;;2.95;1.63;;;;;;;23.08;61.78;101270.31;5112613;28;20127;-73
2023/07/20 12:15:20;;;;;;;3.15;1.67;;;;;;;23.22;62.74;101275.94;5113671;28;20030;-72
2023/07/20 12:17:48;;;;;;;1.60;1.50;;;;;;;23.39;60.95;101262.66;5094566;28;20051;-73
2023/07/20 12:20:36;;;;;;;2.60;1.60;;;;;;;23.47;59.94;101259.31;5113370;28;20131;-73
2023/07/20 12:23:02;;;;;;;1.92;1.67;;;;;;;23.52;58.39;101266.63;5112721;28;20028;-73
2023/07/20 12:25:41;;;;;;;2.35;1.70;;;;;;;23.38;58.80;101269.22;5112692;28;20468;-73
2023/07/20 12:28:11;;;;;;;2.20;1.75;;;;;;;23.32;57.37;101260.25;5113107;28;20523;-73
2023/07/20 12:30:37;;;;;;;2.50;2.17;;;;;;;23.35;58.46;101261.59;5094359;28;20044;-73
2023/07/20 12:36:24;;;;;;;3.92;1.83;;;;;;;23.74;55.65;101259.56;5113534;28;20440;-72
2023/07/20 12:38:50;;;;;;;3.08;1.77;;;;;;;24.18;56.61;101260.34;5113143;28;20106;-73
2023/07/20 12:41:16;;;;;;;3.50;2.30;;;;;;;24.23;54.65;101258.34;5112774;28;20031;-73
2023/07/20 12:43:42;;;;;;;5.32;1.98;;;;;;;24.57;55.35;101265.53;5094567;28;20123;-73
2023/07/20 12:46:08;;;;;;;2.47;2.00;;;;;;;24.82;54.10;101267.03;5113000;28;20377;-72
2023/07/20 12:48:33;;;;;;;2.63;2.10;;;;;;;24.91;54.71;101243.38;5094035;28;20058;-72
2023/07/20 12:50:59;;;;;;;3.65;2.17;;;;;;;24.68;55.03;101258.81;5112865;28;20033;-72
2023/07/20 12:53:24;;;;;;;3.87;2.27;;;;;;;24.43;55.95;101242.78;5112539;28;20032;-72
2023/07/20 12:55:49;;;;;;;3.47;2.27;;;;;;;24.25;56.44;101258.84;5112553;28;20062;-72
2023/07/20 12:58:15;;;;;;;2.90;2.17;;;;;;;23.97;55.95;101254.34;5112760;28;20277;-73
2023/07/20 13:04:02;;;;;;;5.25;2.50;;;;;;;23.31;58.09;101255.91;5113052;28;20080;-73
2023/07/20 13:06:28;;;;;;;3.58;2.42;;;;;;;23.18;59.07;101256.59;5111811;28;20040;-73
2023/07/20 13:08:56;;;;;;;3.53;2.30;;;;;;;23.08;61.31;101259.41;5112699;28;20031;-74
2023/07/20 13:11:22;;;;;;;2.55;2.17;;;;;;;23.06;60.89;101254.25;5112593;28;20551;-72
2023/07/20 13:13:48;;;;;;;3.95;2.30;;;;;;;23.02;61.64;101252.38;5111764;28;20123;-73
2023/07/20 13:16:14;;;;;;;4.55;2.20;;;;;;;23.21;60.47;101247.03;5094190;28;20027;-72
2023/07/20 13:18:40;;;;;;;2.55;1.90;;;;;;;23.35;59.66;101243.31;5093814;28;20127;-73
2023/07/20 13:21:10;;;;;;;3.70;1.98;;;;;;;23.74;59.83;101239.63;5112443;28;20113;-73
2023/07/20 13:23:35;;;;;;;2.70;2.50;;;;;;;24.30;55.99;101236.97;5094217;28;20053;-73
2023/07/20 13:26:00;;;;;;;2.53;2.20;;;;;;;24.82;56.46;101247.88;5111645;28;20044;-71
2023/07/20 13:28:25;;;;;;;2.97;2.00;;;;;;;25.97;54.01;101234.22;5112272;28;20281;-73
2023/07/20 13:30:51;;;;;;;6.10;1.80;;;;;;;26.83;50.10;101237.66;5111547;28;20036;-72
2023/07/20 13:36:37;;;;;;;1.88;1.77;;;;;;;27.28;47.47;101235.69;5116178;28;20055;-73
2023/07/20 13:39:04;;;;;;;6.07;2.13;;;;;;;27.29;47.59;101222.75;5097828;28;20027;-72
2023/07/20 13:41:31;;;;;;;3.10;1.85;;;;;;;27.24;45.82;101226.47;5097570;28;20039;-73
2023/07/20 13:43:57;;;;;;;2.92;2.10;;;;;;;27.10;45.47;101223.81;5115067;28;20472;-72
2023/07/20 13:46:22;;;;;;;2.35;2.08;;;;;;;26.74;48.24;101214.84;5115840;28;20035;-71
2023/07/20 13:48:48;;;;;;;3.20;2.30;;;;;;;26.28;46.57;101218.69;5114994;28;20048;-73
2023/07/20 13:51:14;;;;;;;5.70;2.60;;;;;;;25.65;49.73;101216.78;5115681;28;20109;-72
2023/07/20 13:53:39;;;;;;;3.70;2.17;;;;;;;25.23;51.90;101220.66;5115774;28;20031;-72
2023/07/20 13:56:04;;;;;;;13.87;3.07;;;;;;;24.95;52.04;101225.25;5115074;28;20046;-72